createdAt,value
2018-06-10T00:00:33.145Z,22.13
2018-06-10T00:03:01.229Z,21.90
2018-06-10T00:05:29.312Z,21.30
2018-06-10T00:07:57.168Z,20.43
2018-06-10T00:10:25.257Z,20.23
2018-06-10T00:12:53.341Z,19.80
2018-06-10T00:15:21.428Z,22.77
2018-06-10T00:17:49.503Z,22.50
2018-06-10T00:20:17.590Z,23.60
2018-06-10T00:22:45.660Z,21.77
2018-06-10T00:25:13.749Z,23.00
2018-06-10T00:27:41.829Z,24.53
2018-06-10T00:30:09.935Z,22.03
2018-06-10T00:32:38.013Z,24.00
2018-06-10T00:35:06.152Z,23.43
2018-06-10T00:37:34.221Z,23.63
2018-06-10T00:40:02.304Z,24.10
2018-06-10T00:42:30.387Z,23.10
2018-06-10T00:44:58.303Z,21.90
2018-06-10T00:47:26.386Z,22.77
2018-06-10T00:49:54.481Z,22.13
2018-06-10T00:52:22.561Z,22.73
2018-06-10T00:54:50.648Z,23.23
2018-06-10T00:57:18.730Z,22.60
2018-06-10T00:59:46.834Z,24.10
2018-06-10T01:02:14.909Z,24.00
2018-06-10T01:04:42.992Z,22.90
2018-06-10T01:07:11.073Z,22.33
2018-06-10T01:09:39.195Z,23.50
2018-06-10T01:12:07.267Z,23.63
2018-06-10T01:14:35.340Z,22.83
2018-06-10T01:17:03.413Z,24.20
2018-06-10T01:19:31.493Z,22.87
2018-06-10T01:21:59.577Z,23.17
2018-06-10T01:24:27.658Z,22.27
2018-06-10T01:26:55.749Z,25.17
2018-06-10T01:29:23.838Z,22.03
2018-06-10T01:31:51.931Z,22.70
2018-06-10T01:34:20.030Z,22.00
2018-06-10T01:36:48.121Z,22.80
2018-06-10T01:39:16.202Z,22.37
2018-06-10T01:41:44.284Z,21.13
2018-06-10T01:44:12.361Z,22.37
2018-06-10T01:46:40.449Z,20.93
2018-06-10T01:49:08.538Z,22.33
2018-06-10T01:51:36.616Z,24.60
2018-06-10T01:54:04.844Z,20.07
2018-06-10T01:56:32.924Z,22.17
2018-06-10T01:59:01.001Z,20.43
2018-06-10T02:01:29.128Z,23.20
2018-06-10T02:03:57.212Z,20.93
2018-06-10T02:06:25.292Z,21.70
2018-06-10T02:08:53.401Z,22.43
2018-06-10T02:11:21.489Z,22.30
2018-06-10T02:13:49.569Z,21.50
2018-06-10T02:16:17.657Z,21.43
2018-06-10T02:18:45.745Z,22.20
2018-06-10T02:21:13.603Z,23.30
2018-06-10T02:23:41.692Z,22.40
2018-06-10T02:26:09.773Z,24.03
2018-06-10T02:28:37.853Z,21.63
2018-06-10T02:31:05.973Z,23.70
2018-06-10T02:33:34.060Z,25.60
2018-06-10T02:36:02.162Z,24.60
2018-06-10T02:38:30.238Z,24.70
2018-06-10T02:40:58.330Z,29.57
2018-06-10T02:43:26.405Z,26.90
2018-06-10T02:45:54.492Z,25.53
2018-06-10T02:48:22.573Z,27.70
2018-06-10T02:50:50.678Z,27.43
2018-06-10T02:53:18.754Z,27.13
2018-06-10T02:55:46.830Z,24.60
2018-06-10T02:58:14.918Z,26.10
2018-06-10T03:00:42.984Z,25.77
2018-06-10T03:03:11.068Z,24.47
2018-06-10T03:05:39.142Z,24.57
2018-06-10T03:08:07.241Z,25.90
2018-06-10T03:10:35.313Z,25.43
2018-06-10T03:13:03.530Z,25.83
2018-06-10T03:15:31.713Z,29.73
2018-06-10T03:17:59.789Z,24.90
2018-06-10T03:20:27.950Z,27.00
2018-06-10T03:22:56.042Z,26.80
2018-06-10T03:25:24.113Z,28.40
2018-06-10T03:27:52.202Z,26.77
2018-06-10T03:30:20.281Z,28.20
2018-06-10T03:32:48.365Z,28.10
2018-06-10T03:35:16.462Z,27.47
2018-06-10T03:37:44.579Z,27.20
2018-06-10T03:40:12.637Z,27.00
2018-06-10T03:42:40.729Z,29.37
2018-06-10T03:45:08.817Z,28.20
2018-06-10T03:47:36.896Z,28.70
2018-06-10T03:50:04.990Z,30.47
2018-06-10T03:52:33.077Z,27.77
2018-06-10T03:55:01.149Z,29.60
2018-06-10T03:57:29.225Z,29.07
2018-06-10T03:59:57.313Z,28.70
2018-06-10T04:02:25.381Z,29.97
2018-06-10T04:04:53.473Z,28.63
2018-06-10T04:07:21.548Z,27.80
2018-06-10T04:09:49.635Z,29.90
2018-06-10T04:12:17.712Z,27.30
2018-06-10T04:14:45.805Z,24.23
2018-06-10T04:17:13.876Z,27.97
2018-06-10T04:19:41.961Z,27.40
2018-06-10T04:22:10.133Z,26.40
2018-06-10T04:24:38.216Z,29.23
2018-06-10T04:27:06.298Z,25.60
2018-06-10T04:29:34.389Z,25.90
2018-06-10T04:32:02.725Z,27.20
2018-06-10T04:34:30.808Z,24.40
2018-06-10T04:36:58.889Z,25.00
2018-06-10T04:39:26.977Z,24.10
2018-06-10T04:41:55.062Z,24.67
2018-06-10T04:44:23.136Z,24.03
2018-06-10T04:46:51.218Z,23.53
2018-06-10T04:49:19.301Z,22.47
2018-06-10T04:51:47.385Z,24.77
2018-06-10T04:54:15.474Z,24.63
2018-06-10T04:56:43.549Z,25.53
2018-06-10T04:59:11.676Z,24.43
2018-06-10T05:01:39.744Z,24.20
2018-06-10T05:04:08.711Z,26.37
2018-06-10T05:06:36.773Z,25.77
2018-06-10T05:09:06.512Z,25.37
2018-06-10T05:11:34.598Z,26.43
2018-06-10T05:14:02.686Z,26.17
2018-06-10T05:16:30.777Z,23.67
2018-06-10T05:18:58.852Z,26.00
2018-06-10T05:21:26.940Z,27.63
2018-06-10T05:23:55.026Z,27.03
2018-06-10T05:26:23.113Z,25.87
2018-06-10T05:28:51.024Z,25.23
2018-06-10T05:31:19.121Z,23.00
2018-06-10T05:33:47.229Z,27.13
2018-06-10T05:36:15.329Z,25.20
2018-06-10T05:38:43.424Z,27.17
2018-06-10T05:41:11.517Z,25.70
2018-06-10T05:43:39.593Z,23.90
2018-06-10T05:46:07.529Z,23.07
2018-06-10T05:48:35.609Z,25.70
2018-06-10T05:51:03.777Z,24.33
2018-06-10T05:53:31.850Z,22.93
2018-06-10T05:55:59.941Z,23.40
2018-06-10T05:58:27.877Z,23.73
2018-06-10T06:00:55.978Z,21.40
2018-06-10T06:03:24.058Z,23.90
2018-06-10T06:05:52.190Z,23.43
2018-06-10T06:08:20.285Z,24.17
2018-06-10T06:10:48.386Z,22.40
2018-06-10T06:13:16.504Z,25.70
2018-06-10T06:15:44.570Z,24.80
2018-06-10T06:18:12.657Z,22.77
2018-06-10T06:20:40.753Z,21.10
2018-06-10T06:23:08.846Z,22.90
2018-06-10T06:25:36.945Z,24.73
2018-06-10T06:28:05.033Z,24.17
2018-06-10T06:30:33.121Z,26.97
2018-06-10T06:33:01.205Z,25.70
2018-06-10T06:35:29.308Z,23.27
2018-06-10T06:37:57.390Z,22.50
2018-06-10T06:40:25.489Z,28.57
2018-06-10T06:42:53.581Z,22.27
2018-06-10T06:45:21.673Z,29.03
2018-06-10T06:47:49.756Z,28.70
2018-06-10T06:50:17.984Z,32.40
2018-06-10T06:52:46.066Z,35.37
2018-06-10T06:55:14.157Z,33.27
2018-06-10T06:57:42.253Z,33.73
2018-06-10T07:00:10.345Z,36.47
2018-06-10T07:02:38.433Z,33.30
2018-06-10T07:05:06.521Z,31.90
2018-06-10T07:07:34.618Z,30.03
2018-06-10T07:10:02.702Z,31.60
2018-06-10T07:12:30.793Z,32.40
2018-06-10T07:14:58.925Z,36.70
2018-06-10T07:17:27.031Z,29.70
2018-06-10T07:19:55.123Z,35.23
2018-06-10T07:22:23.222Z,35.10
2018-06-10T07:24:51.326Z,37.73
2018-06-10T07:27:19.705Z,37.43
2018-06-10T07:29:47.793Z,38.80
2018-06-10T07:32:15.898Z,39.67
2018-06-10T07:34:44.249Z,32.03
2018-06-10T07:37:12.342Z,35.03
2018-06-10T07:39:40.417Z,37.03
2018-06-10T07:42:08.517Z,35.73
2018-06-10T07:44:36.422Z,37.60
2018-06-10T07:47:04.543Z,38.93
2018-06-10T07:49:32.620Z,40.90
2018-06-10T07:52:00.712Z,41.40
2018-06-10T07:54:28.805Z,44.33
2018-06-10T07:56:56.975Z,40.20
2018-06-10T07:59:25.066Z,44.93
2018-06-10T08:01:53.160Z,39.63
2018-06-10T08:04:21.248Z,36.80
2018-06-10T08:06:49.357Z,34.97
2018-06-10T08:09:17.456Z,34.20
2018-06-10T08:11:45.549Z,38.73
2018-06-10T08:14:13.637Z,33.87
2018-06-10T08:16:41.741Z,39.73
2018-06-10T08:19:09.829Z,36.57
2018-06-10T08:21:37.922Z,36.43
2018-06-10T08:24:06.061Z,37.30
2018-06-10T08:26:34.183Z,42.57
2018-06-10T08:29:02.267Z,39.37
2018-06-10T08:31:30.379Z,32.70
2018-06-10T08:33:59.313Z,39.13
2018-06-10T08:36:27.449Z,41.20
2018-06-10T08:38:55.530Z,39.30
2018-06-10T08:41:23.629Z,40.67
2018-06-10T08:43:51.805Z,32.57
2018-06-10T08:46:19.841Z,33.63
2018-06-10T08:48:47.937Z,34.30
2018-06-10T08:51:16.030Z,35.27
2018-06-10T08:53:50.852Z,36.30
2018-06-10T08:56:18.714Z,31.67
2018-06-10T08:58:46.811Z,36.17
2018-06-10T09:01:14.885Z,36.17
2018-06-10T09:03:42.981Z,39.90
2018-06-10T09:06:11.074Z,35.70
2018-06-10T09:08:39.187Z,39.03
2018-06-10T09:11:07.284Z,34.00
2018-06-10T09:13:35.377Z,32.33
2018-06-10T09:16:03.462Z,27.87
2018-06-10T09:18:31.582Z,40.73
2018-06-10T09:20:59.658Z,38.87
2018-06-10T09:23:27.738Z,36.93
2018-06-10T09:25:55.817Z,38.60
2018-06-10T09:28:24.105Z,35.40
2018-06-10T09:30:52.185Z,43.57
2018-06-10T09:33:20.274Z,33.17
2018-06-10T09:35:48.358Z,41.80
2018-06-10T09:38:16.441Z,40.80
2018-06-10T09:40:44.526Z,41.50
2018-06-10T09:43:12.451Z,35.83
2018-06-10T09:45:40.513Z,33.77
2018-06-10T09:48:08.600Z,28.33
2018-06-10T09:50:36.682Z,35.77
2018-06-10T09:53:04.890Z,34.40
2018-06-10T09:55:33.181Z,32.17
2018-06-10T09:58:01.065Z,33.03
2018-06-10T10:00:29.141Z,34.00
2018-06-10T10:02:57.229Z,35.87
2018-06-10T10:05:25.316Z,30.00
2018-06-10T10:07:53.398Z,22.87
2018-06-10T10:10:21.830Z,25.67
2018-06-10T10:12:49.917Z,23.73
2018-06-10T10:15:17.997Z,22.90
2018-06-10T10:17:46.092Z,26.67
2018-06-10T10:20:14.175Z,29.40
2018-06-10T10:22:42.273Z,28.60
2018-06-10T10:25:10.362Z,23.87
2018-06-10T10:27:38.445Z,19.13
2018-06-10T10:30:06.530Z,23.83
2018-06-10T10:32:34.611Z,22.97
2018-06-10T10:35:02.706Z,27.33
2018-06-10T10:37:30.786Z,19.90
2018-06-10T10:39:58.904Z,20.70
2018-06-10T10:42:26.982Z,19.77
2018-06-10T10:44:55.076Z,20.80
2018-06-10T10:47:23.162Z,19.27
2018-06-10T10:49:51.245Z,22.93
2018-06-10T10:52:19.322Z,35.03
2018-06-10T10:54:47.397Z,29.80
2018-06-10T10:57:15.481Z,31.70
2018-06-10T10:59:43.564Z,32.33
2018-06-10T11:02:11.650Z,30.20
2018-06-10T11:04:39.791Z,37.37
2018-06-10T11:07:07.852Z,34.60
2018-06-10T11:09:35.940Z,37.13
2018-06-10T11:12:04.018Z,32.53
2018-06-10T11:14:32.109Z,32.50
2018-06-10T11:17:00.190Z,27.97
2018-06-10T11:19:28.297Z,28.40
2018-06-10T11:21:56.375Z,23.00
2018-06-10T11:24:24.457Z,24.30
2018-06-10T11:26:52.533Z,23.77
2018-06-10T11:29:20.616Z,24.57
2018-06-10T11:31:48.696Z,19.70
2018-06-10T11:34:16.793Z,19.60
2018-06-10T11:36:44.878Z,19.20
2018-06-10T11:39:12.965Z,16.40
2018-06-10T11:41:41.126Z,18.53
2018-06-10T11:44:09.217Z,18.10
2018-06-10T11:46:37.290Z,17.47
2018-06-10T11:49:05.369Z,17.93
2018-06-10T11:51:33.458Z,16.27
2018-06-10T11:54:01.538Z,20.13
2018-06-10T11:56:29.624Z,19.17
2018-06-10T11:58:57.700Z,22.57
2018-06-10T12:01:25.796Z,18.73
2018-06-10T12:03:53.883Z,17.17
2018-06-10T12:06:21.961Z,19.10
2018-06-10T12:08:50.038Z,18.43
2018-06-10T12:11:18.120Z,18.97
2018-06-10T12:13:46.230Z,18.80
2018-06-10T12:16:14.296Z,16.53
2018-06-10T12:18:42.373Z,16.17
2018-06-10T12:21:10.463Z,16.93
2018-06-10T12:23:38.534Z,17.50
2018-06-10T12:26:06.613Z,17.40
2018-06-10T12:28:34.697Z,17.40
2018-06-10T12:31:02.785Z,16.87
2018-06-10T12:33:30.865Z,17.20
2018-06-10T12:35:58.960Z,17.07
2018-06-10T12:38:27.066Z,16.30
2018-06-10T12:40:55.197Z,17.83
2018-06-10T12:43:23.286Z,14.83
2018-06-10T12:45:51.361Z,14.33
2018-06-10T12:48:19.445Z,13.23
2018-06-10T12:50:47.525Z,14.80
2018-06-10T12:53:15.632Z,17.13
2018-06-10T12:55:43.713Z,17.20
2018-06-10T12:58:11.802Z,15.53
2018-06-10T13:00:39.661Z,16.13
2018-06-10T13:03:07.753Z,16.07
2018-06-10T13:05:35.850Z,18.10
2018-06-10T13:08:03.937Z,14.90
2018-06-10T13:10:32.014Z,15.20
2018-06-10T13:13:00.110Z,14.47
2018-06-10T13:15:28.176Z,15.07
2018-06-10T13:17:56.252Z,15.13
2018-06-10T13:20:24.341Z,12.23
2018-06-10T13:22:52.425Z,13.00
2018-06-10T13:25:20.510Z,12.20
2018-06-10T13:27:48.590Z,12.93
2018-06-10T13:30:16.654Z,12.60
2018-06-10T13:32:44.728Z,12.90
2018-06-10T13:35:12.814Z,12.37
2018-06-10T13:37:40.894Z,13.57
2018-06-10T13:40:08.989Z,13.33
2018-06-10T13:42:36.853Z,13.17
2018-06-10T13:45:04.933Z,13.17
2018-06-10T13:47:33.021Z,13.10
2018-06-10T13:50:01.110Z,12.20
2018-06-10T13:52:29.189Z,12.33
2018-06-10T13:54:57.265Z,13.20
2018-06-10T13:57:25.358Z,13.67
2018-06-10T13:59:53.438Z,13.33
2018-06-10T14:02:21.548Z,12.33
2018-06-10T14:04:49.646Z,13.17
2018-06-10T14:07:17.717Z,13.47
2018-06-10T14:09:45.807Z,12.40
2018-06-10T14:12:13.872Z,11.03
2018-06-10T14:14:41.953Z,11.77
2018-06-10T14:17:10.025Z,11.73
2018-06-10T14:19:38.128Z,11.20
2018-06-10T14:22:06.261Z,11.40
2018-06-10T14:24:34.341Z,11.33
2018-06-10T14:27:02.418Z,11.83
2018-06-10T14:29:30.510Z,11.20
2018-06-10T14:31:58.584Z,10.70
2018-06-10T14:34:26.678Z,10.90
2018-06-10T14:36:54.751Z,11.80
2018-06-10T14:39:22.837Z,11.53
2018-06-10T14:41:50.909Z,10.90
2018-06-10T14:44:18.997Z,10.83
2018-06-10T14:46:47.073Z,12.50
2018-06-10T14:49:15.157Z,12.80
2018-06-10T14:51:43.233Z,11.60
2018-06-10T14:54:11.305Z,11.10
2018-06-10T14:56:39.380Z,11.63
2018-06-10T14:59:07.461Z,11.67
2018-06-10T15:01:35.560Z,10.77
2018-06-10T15:04:03.642Z,11.10
2018-06-10T15:06:31.730Z,11.00
2018-06-10T15:08:59.801Z,11.30
2018-06-10T15:11:27.877Z,11.77
2018-06-10T15:13:55.953Z,12.00
2018-06-10T15:16:24.037Z,11.10
2018-06-10T15:18:52.120Z,11.53
2018-06-10T15:21:20.193Z,11.80
2018-06-10T15:23:48.282Z,11.27
2018-06-10T15:26:16.367Z,11.37
2018-06-10T15:28:44.483Z,10.97
2018-06-10T15:31:12.539Z,10.60
2018-06-10T15:33:40.634Z,10.63
2018-06-10T15:36:08.720Z,11.60
2018-06-10T15:38:36.793Z,11.03
2018-06-10T15:41:04.881Z,11.20
2018-06-10T15:43:32.940Z,9.70
2018-06-10T15:46:01.026Z,11.43
2018-06-10T15:48:29.120Z,11.20
2018-06-10T15:50:57.205Z,10.40
2018-06-10T15:53:25.298Z,11.03
2018-06-10T15:55:53.380Z,11.77
2018-06-10T15:58:21.236Z,11.70
2018-06-10T16:00:49.328Z,11.40
2018-06-10T16:03:17.429Z,11.70
2018-06-10T16:05:45.505Z,12.43
2018-06-10T16:08:13.597Z,10.80
2018-06-10T16:10:41.678Z,11.47
2018-06-10T16:13:09.916Z,12.53
2018-06-10T16:15:37.997Z,9.60
2018-06-10T16:18:06.090Z,10.57
2018-06-10T16:20:34.165Z,11.97
2018-06-10T16:23:02.258Z,11.80
2018-06-10T16:25:30.393Z,12.70
2018-06-10T16:27:58.486Z,12.37
2018-06-10T16:30:26.570Z,12.27
2018-06-10T16:32:55.929Z,10.87
2018-06-10T16:35:30.436Z,11.57
2018-06-10T16:37:58.565Z,11.33
2018-06-10T16:40:26.633Z,16.23
2018-06-10T16:42:54.722Z,14.20
2018-06-10T16:45:22.801Z,11.50
2018-06-10T16:47:50.881Z,10.37
2018-06-10T16:50:18.965Z,11.80
2018-06-10T16:52:47.061Z,12.03
2018-06-10T16:55:15.134Z,25.87
2018-06-10T16:57:43.213Z,17.80
2018-06-10T17:00:11.301Z,17.70
2018-06-10T17:02:39.385Z,12.60
2018-06-10T17:05:07.484Z,12.03
2018-06-10T17:07:35.557Z,11.20
2018-06-10T17:10:03.662Z,10.30
2018-06-10T17:12:31.773Z,10.40
2018-06-10T17:14:59.857Z,8.87
2018-06-10T17:17:27.942Z,11.67
2018-06-10T17:19:56.034Z,11.43
2018-06-10T17:22:24.121Z,10.60
2018-06-10T17:24:52.212Z,10.67
2018-06-10T17:27:20.281Z,11.03
2018-06-10T17:29:48.364Z,11.83
2018-06-10T17:32:16.450Z,12.33
2018-06-10T17:34:44.551Z,12.27
2018-06-10T17:37:12.621Z,12.17
2018-06-10T17:39:40.740Z,11.97
2018-06-10T17:42:08.833Z,11.80
2018-06-10T17:44:36.922Z,11.30
2018-06-10T17:47:05.045Z,12.23
2018-06-10T17:49:33.142Z,10.63
2018-06-10T17:52:01.241Z,10.90
2018-06-10T17:54:29.338Z,11.33
2018-06-10T17:56:57.433Z,11.63
2018-06-10T17:59:25.516Z,11.20
2018-06-10T18:01:53.391Z,11.50
2018-06-10T18:04:21.487Z,11.73
2018-06-10T18:06:49.618Z,13.57
2018-06-10T18:09:17.749Z,14.23
2018-06-10T18:11:46.137Z,14.10
2018-06-10T18:14:14.245Z,17.37
2018-06-10T18:16:42.124Z,16.43
2018-06-10T18:19:10.219Z,19.63
2018-06-10T18:21:38.409Z,20.93
2018-06-10T18:24:06.530Z,16.00
2018-06-10T18:26:34.434Z,16.70
2018-06-10T18:29:02.489Z,19.67
2018-06-10T18:31:30.595Z,17.10
2018-06-10T18:33:58.693Z,15.40
2018-06-10T18:36:26.797Z,17.37
2018-06-10T18:38:54.901Z,15.80
2018-06-10T18:41:22.989Z,15.60
2018-06-10T18:43:51.085Z,16.03
2018-06-10T18:46:18.944Z,14.97
2018-06-10T18:48:47.055Z,12.93
2018-06-10T18:51:15.173Z,12.63
2018-06-10T18:53:43.269Z,11.50
2018-06-10T18:56:11.366Z,12.00
2018-06-10T18:58:39.501Z,13.80
2018-06-10T19:01:07.618Z,12.30
2018-06-10T19:03:35.752Z,11.67
2018-06-10T19:06:03.819Z,12.17
2018-06-10T19:08:31.925Z,12.30
2018-06-10T19:11:00.028Z,13.20
2018-06-10T19:13:28.118Z,13.30
2018-06-10T19:15:56.210Z,13.03
2018-06-10T19:18:24.302Z,13.30
2018-06-10T19:20:52.391Z,14.17
2018-06-10T19:23:20.474Z,15.30
2018-06-10T19:25:48.566Z,14.63
2018-06-10T19:28:16.649Z,13.75
2018-06-10T19:30:44.733Z,13.87
2018-06-10T19:33:12.862Z,12.60
2018-06-10T19:35:41.095Z,12.93
2018-06-10T19:38:09.179Z,12.30
2018-06-10T19:40:37.274Z,14.10
2018-06-10T19:43:05.353Z,13.80
2018-06-10T19:45:35.642Z,14.53
2018-06-10T19:48:03.753Z,13.97
2018-06-10T19:50:31.849Z,14.70
2018-06-10T19:52:59.945Z,12.10
2018-06-10T19:55:28.033Z,13.40
2018-06-10T19:57:56.159Z,14.50
2018-06-10T20:00:24.228Z,12.50
2018-06-10T20:02:52.313Z,13.03
2018-06-10T20:05:20.397Z,14.77
2018-06-10T20:07:48.499Z,14.83
2018-06-10T20:10:16.572Z,14.97
2018-06-10T20:12:44.666Z,15.50
2018-06-10T20:15:12.744Z,14.10
2018-06-10T20:17:40.834Z,14.33
2018-06-10T20:20:08.954Z,13.23
2018-06-10T20:22:37.083Z,13.57
2018-06-10T20:25:05.313Z,12.33
2018-06-10T20:27:33.405Z,15.17
2018-06-10T20:30:01.520Z,13.00
2018-06-10T20:32:29.588Z,13.13
2018-06-10T20:34:57.687Z,12.23
2018-06-10T20:37:25.776Z,13.57
2018-06-10T20:39:53.853Z,12.27
2018-06-10T20:42:21.965Z,12.20
2018-06-10T20:44:50.053Z,11.60
2018-06-10T20:47:18.138Z,11.97
2018-06-10T20:49:46.221Z,12.87
2018-06-10T20:52:14.313Z,12.23
2018-06-10T20:54:42.402Z,11.97
2018-06-10T20:57:10.517Z,13.53
2018-06-10T20:59:38.618Z,12.87
2018-06-10T21:02:06.701Z,12.97
2018-06-10T21:04:34.792Z,14.80
2018-06-10T21:07:02.653Z,15.13
2018-06-10T21:09:30.741Z,16.50
2018-06-10T21:11:58.830Z,15.33
2018-06-10T21:14:26.937Z,20.10
2018-06-10T21:16:55.026Z,17.90
2018-06-10T21:19:23.133Z,18.60
2018-06-10T21:21:51.229Z,19.23
2018-06-10T21:24:19.321Z,17.80
2018-06-10T21:26:47.401Z,17.13
2018-06-10T21:29:15.509Z,16.73
2018-06-10T21:31:43.365Z,15.57
2018-06-10T21:34:11.466Z,16.87
2018-06-10T21:36:39.565Z,15.80
2018-06-10T21:39:08.341Z,14.83
2018-06-10T21:41:36.541Z,15.63
2018-06-10T21:44:04.616Z,15.10
2018-06-10T21:46:32.709Z,15.40
2018-06-10T21:49:00.793Z,14.93
2018-06-10T21:51:28.884Z,15.03
2018-06-10T21:53:56.977Z,14.70
2018-06-10T21:56:25.070Z,15.87
2018-06-10T21:58:53.157Z,15.30
2018-06-10T22:01:21.269Z,15.00
2018-06-10T22:03:49.360Z,14.93
2018-06-10T22:06:17.455Z,14.87
2018-06-10T22:08:45.529Z,15.13
2018-06-10T22:11:13.629Z,15.87
2018-06-10T22:13:41.489Z,15.63
2018-06-10T22:16:09.577Z,14.93
2018-06-10T22:18:38.483Z,15.13
2018-06-10T22:21:06.623Z,13.27
2018-06-10T22:23:34.652Z,14.30
2018-06-10T22:26:02.740Z,14.77
2018-06-10T22:28:30.829Z,15.47
2018-06-10T22:30:58.916Z,14.37
2018-06-10T22:33:26.992Z,15.83
2018-06-10T22:35:55.097Z,14.93
2018-06-10T22:38:23.178Z,15.43
2018-06-10T22:40:51.273Z,17.07
2018-06-10T22:43:19.353Z,14.87
2018-06-10T22:45:47.454Z,15.00
2018-06-10T22:48:15.538Z,15.23
2018-06-10T22:50:43.634Z,14.73
2018-06-10T22:54:20.198Z,16.00
2018-06-10T22:56:48.290Z,17.27
2018-06-10T22:59:16.381Z,16.43
2018-06-10T23:01:44.470Z,16.70
2018-06-10T23:04:12.337Z,20.33
2018-06-10T23:06:40.438Z,20.93
2018-06-10T23:09:08.526Z,20.50
2018-06-10T23:11:36.617Z,21.70
2018-06-10T23:14:04.702Z,21.63
2018-06-10T23:16:32.798Z,24.13
2018-06-10T23:19:00.877Z,24.97
2018-06-10T23:21:28.982Z,26.13
2018-06-10T23:23:57.074Z,25.17
2018-06-10T23:26:25.168Z,26.50
2018-06-10T23:28:53.250Z,24.67
2018-06-10T23:31:21.116Z,29.63
2018-06-10T23:33:49.197Z,26.93
2018-06-10T23:36:17.317Z,26.33
2018-06-10T23:38:45.394Z,27.20
2018-06-10T23:41:13.494Z,28.80
2018-06-10T23:43:41.581Z,24.97
2018-06-10T23:46:09.673Z,25.40
2018-06-10T23:48:37.764Z,31.33
2018-06-10T23:51:05.859Z,30.27
2018-06-10T23:53:33.942Z,29.60
2018-06-10T23:56:02.052Z,28.00
2018-06-10T23:58:30.146Z,28.03
